Main page
METAR-TAF:

METAR-TAF

Airports :

Quincy Regional Airport

Quincy, Illinois, United States

latitude: 39-56-33N, longitude: 091-11-40W, elevation: 768 ft

Current weather observation

The report was made 1 hour and 4 minutes ago, at 10:54 UTC
Calm wind
Temperature 55°F
Humidity 77%
Pressure 29.91 in. Hg
Visibility: 10 miles
Clear sky

METAR: KUIN 231054Z AUTO 00000KT 10SM CLR 13/09 A2991 RMK AO2 SLP125 T01280094 $

Time: 06:58 (11:58 UTC)

Forecast

The report was made 38 minutes ago, at 11:20 UTC
Forecast valid from 23 at 12 UTC to 24 at 12 UTC
Wind 9 mph from the Southeast
Visibility: 6 miles
Few clouds at a height of 25000 ft

TAF: KUIN 231120Z 2312/2412 14008KT P6SM FEW250

Weather observations and forecasts of more than 4000 airports (METAR and TAF reports).

The available stations are represented by yellow and red dots on the map.

Hover mouse over dot to see the name of the station.

Then click to see weather observations and forecasts.

To change the map : click on the green buttons with a black cross to zoom in, on the green button with a dash to zoom out, or on the green arrows for adjacent maps.


METAR-TAF: